createdAt,value
2023-06-29T00:00:20.217Z,1549.00
2023-06-29T00:01:20.309Z,1535.00
2023-06-29T00:02:20.343Z,1538.00
2023-06-29T00:03:20.555Z,1524.00
2023-06-29T00:04:20.457Z,1522.00
2023-06-29T00:05:20.495Z,1507.00
2023-06-29T00:06:20.571Z,1521.00
2023-06-29T00:07:20.668Z,1503.00
2023-06-29T00:08:20.675Z,1509.00
2023-06-29T00:09:20.730Z,1495.00
2023-06-29T00:10:20.795Z,1500.00
2023-06-29T00:11:20.830Z,1487.00
2023-06-29T00:12:20.897Z,1474.00
2023-06-29T00:13:20.951Z,1459.00
2023-06-29T00:14:20.955Z,1454.00
2023-06-29T00:15:21.008Z,1446.00
2023-06-29T00:16:21.114Z,1443.00
2023-06-29T00:17:21.156Z,1430.00
2023-06-29T00:18:21.135Z,1442.00
2023-06-29T00:19:21.153Z,1443.00
2023-06-29T00:20:21.187Z,1433.00
2023-06-29T00:21:23.568Z,1436.00
2023-06-29T00:22:21.243Z,1424.00
2023-06-29T00:23:21.225Z,1427.00
2023-06-29T00:24:21.201Z,1433.00
2023-06-29T00:25:21.214Z,1392.00
2023-06-29T00:26:21.189Z,1388.00
2023-06-29T00:27:21.191Z,1377.00
2023-06-29T00:28:21.191Z,1383.00
2023-06-29T00:29:21.184Z,1375.00
2023-06-29T00:30:21.173Z,1375.00
2023-06-29T00:31:21.224Z,1376.00
2023-06-29T00:32:21.221Z,1353.00
2023-06-29T00:33:21.156Z,1346.00
2023-06-29T00:34:21.147Z,1340.00
2023-06-29T00:35:21.124Z,1330.00
2023-06-29T00:36:21.126Z,1339.00
2023-06-29T00:37:21.133Z,1331.00
2023-06-29T00:38:21.117Z,1330.00
2023-06-29T00:39:21.099Z,1320.00
2023-06-29T00:40:21.102Z,1321.00
2023-06-29T00:41:21.110Z,1307.00
2023-06-29T00:42:21.107Z,1296.00
2023-06-29T00:43:21.090Z,1315.00
2023-06-29T00:44:21.062Z,1295.00
2023-06-29T00:45:21.080Z,1298.00
2023-06-29T00:46:21.103Z,1293.00
2023-06-29T00:47:21.041Z,1270.00
2023-06-29T00:48:21.050Z,1288.00
2023-06-29T00:49:21.044Z,1261.00
2023-06-29T00:50:21.030Z,1276.00
2023-06-29T00:51:21.030Z,1265.00
2023-06-29T00:52:21.025Z,1268.00
2023-06-29T00:53:21.030Z,1252.00
2023-06-29T00:54:21.017Z,1253.00
2023-06-29T00:55:21.020Z,1253.00
2023-06-29T00:56:20.983Z,1265.00
2023-06-29T00:57:20.990Z,1261.00
2023-06-29T00:58:20.970Z,1245.00
2023-06-29T00:59:20.974Z,1252.00
2023-06-29T01:00:20.990Z,1235.00
2023-06-29T01:01:21.013Z,1248.00
2023-06-29T01:02:20.955Z,1234.00
2023-06-29T01:03:21.035Z,1224.00
2023-06-29T01:04:20.940Z,1212.00
2023-06-29T01:05:20.913Z,1220.00
2023-06-29T01:06:20.911Z,1217.00
2023-06-29T01:07:20.930Z,1207.00
2023-06-29T01:08:20.912Z,1202.00
2023-06-29T01:09:20.899Z,1216.00
2023-06-29T01:10:20.882Z,1213.00
2023-06-29T01:11:20.890Z,1212.00
2023-06-29T01:12:20.887Z,1213.00
2023-06-29T01:13:20.868Z,1198.00
2023-06-29T01:14:20.878Z,1212.00
2023-06-29T01:15:20.860Z,1196.00
2023-06-29T01:16:20.895Z,1210.00
2023-06-29T01:17:20.854Z,1206.00
2023-06-29T01:18:20.866Z,1208.00
2023-06-29T01:19:20.837Z,1214.00
2023-06-29T01:20:20.862Z,1186.00
2023-06-29T01:21:20.832Z,1196.00
2023-06-29T01:22:20.854Z,1177.00
2023-06-29T01:23:20.809Z,1173.00
2023-06-29T01:24:20.801Z,1171.00
2023-06-29T01:25:20.783Z,1152.00
2023-06-29T01:26:20.803Z,1174.00
2023-06-29T01:27:20.777Z,1171.00
2023-06-29T01:28:20.763Z,1162.00
2023-06-29T01:29:20.764Z,1162.00
2023-06-29T01:30:20.761Z,1165.00
2023-06-29T01:31:20.785Z,1177.00
2023-06-29T01:32:20.763Z,1149.00
2023-06-29T01:33:20.750Z,1160.00
2023-06-29T01:34:20.713Z,1131.00
2023-06-29T01:35:20.724Z,1158.00
2023-06-29T01:36:20.728Z,1151.00
2023-06-29T01:37:20.699Z,1145.00
2023-06-29T01:38:20.720Z,1133.00
2023-06-29T01:39:20.693Z,1137.00
2023-06-29T01:40:20.711Z,1133.00
2023-06-29T01:41:20.700Z,1116.00
2023-06-29T01:42:20.662Z,1129.00
2023-06-29T01:43:20.669Z,1121.00
2023-06-29T01:44:20.680Z,1114.00
2023-06-29T01:45:20.670Z,1108.00
2023-06-29T01:46:20.661Z,1122.00
2023-06-29T01:47:20.634Z,1121.00
2023-06-29T01:48:20.650Z,1137.00
2023-06-29T01:49:20.629Z,1127.00
2023-06-29T01:50:20.614Z,1119.00
2023-06-29T01:51:20.612Z,1108.00
2023-06-29T01:52:20.617Z,1118.00
2023-06-29T01:53:20.593Z,1112.00
2023-06-29T01:54:20.614Z,1081.00
2023-06-29T01:55:20.588Z,1094.00
2023-06-29T01:56:20.563Z,1111.00
2023-06-29T01:57:20.569Z,1093.00
2023-06-29T01:58:20.554Z,1112.00
2023-06-29T01:59:20.557Z,1110.00
2023-06-29T02:00:20.593Z,1110.00
2023-06-29T02:01:20.599Z,1101.00
2023-06-29T02:02:20.626Z,1098.00
2023-06-29T02:03:20.568Z,1114.00
2023-06-29T02:04:20.529Z,1124.00
2023-06-29T02:05:20.509Z,1127.00
2023-06-29T02:06:20.491Z,1124.00
2023-06-29T02:07:20.548Z,1106.00
2023-06-29T02:08:20.501Z,1117.00
2023-06-29T02:09:20.490Z,1127.00
2023-06-29T02:10:20.484Z,1131.00
2023-06-29T02:11:20.553Z,1131.00
2023-06-29T02:12:20.467Z,1140.00
2023-06-29T02:13:20.461Z,1139.00
2023-06-29T02:14:20.435Z,1146.00
2023-06-29T02:15:20.441Z,1130.00
2023-06-29T02:16:20.535Z,1128.00
2023-06-29T02:17:20.434Z,1137.00
2023-06-29T02:18:20.452Z,1137.00
2023-06-29T02:19:20.425Z,1126.00
2023-06-29T02:20:20.395Z,1123.00
2023-06-29T02:21:20.397Z,1133.00
2023-06-29T02:22:20.403Z,1126.00
2023-06-29T02:23:20.408Z,1126.00
2023-06-29T02:24:20.387Z,1126.00
2023-06-29T02:25:20.370Z,1150.00
2023-06-29T02:26:20.368Z,1139.00
2023-06-29T02:27:20.376Z,1154.00
2023-06-29T02:28:20.376Z,1150.00
2023-06-29T02:29:20.362Z,1145.00
2023-06-29T02:30:20.381Z,1143.00
2023-06-29T02:31:20.363Z,1138.00
2023-06-29T02:32:20.345Z,1132.00
2023-06-29T02:33:20.371Z,1130.00
2023-06-29T02:34:20.356Z,1129.00
2023-06-29T02:35:20.372Z,1135.00
2023-06-29T02:36:20.337Z,1130.00
2023-06-29T02:37:20.345Z,1132.00
2023-06-29T02:38:20.341Z,1120.00
2023-06-29T02:39:20.342Z,1117.00
2023-06-29T02:40:20.341Z,1108.00
2023-06-29T02:41:20.330Z,1102.00
2023-06-29T02:42:20.357Z,1101.00
2023-06-29T02:43:20.344Z,1092.00
2023-06-29T02:44:20.326Z,1110.00
2023-06-29T02:45:20.338Z,1112.00
2023-06-29T02:46:20.410Z,1115.00
2023-06-29T02:47:20.349Z,1114.00
2023-06-29T02:48:20.338Z,1108.00
2023-06-29T02:49:20.329Z,1108.00
2023-06-29T02:50:20.308Z,1114.00
2023-06-29T02:51:20.313Z,1112.00
2023-06-29T02:52:20.322Z,1128.00
2023-06-29T02:53:20.327Z,1121.00
2023-06-29T02:54:20.315Z,1113.00
2023-06-29T02:55:20.324Z,1123.00
2023-06-29T02:56:20.311Z,1128.00
2023-06-29T02:57:20.328Z,1142.00
2023-06-29T02:58:20.326Z,1123.00
2023-06-29T02:59:20.342Z,1118.00
2023-06-29T03:00:20.315Z,1117.00
2023-06-29T03:01:20.357Z,1094.00
2023-06-29T03:02:20.328Z,1120.00
2023-06-29T03:03:20.419Z,1097.00
2023-06-29T03:04:20.324Z,1104.00
2023-06-29T03:05:20.326Z,1108.00
2023-06-29T03:06:20.326Z,1092.00
2023-06-29T03:07:20.346Z,1105.00
2023-06-29T03:08:20.338Z,1107.00
2023-06-29T03:09:20.378Z,1104.00
2023-06-29T03:10:20.370Z,1101.00
2023-06-29T03:11:20.321Z,1086.00
2023-06-29T03:12:20.332Z,1078.00
2023-06-29T03:13:20.337Z,1096.00
2023-06-29T03:14:20.347Z,1101.00
2023-06-29T03:15:20.356Z,1108.00
2023-06-29T03:16:20.397Z,1105.00
2023-06-29T03:17:20.382Z,1107.00
2023-06-29T03:18:20.375Z,1110.00
2023-06-29T03:19:20.373Z,1100.00
2023-06-29T03:20:20.389Z,1098.00
2023-06-29T03:21:20.398Z,1100.00
2023-06-29T03:22:20.392Z,1089.00
2023-06-29T03:23:20.405Z,1123.00
2023-06-29T03:24:20.393Z,1096.00
2023-06-29T03:25:20.419Z,1087.00
2023-06-29T03:26:20.413Z,1087.00
2023-06-29T03:27:20.452Z,1098.00
2023-06-29T03:28:20.414Z,1091.00
2023-06-29T03:29:20.425Z,1084.00
2023-06-29T03:30:20.415Z,1085.00
2023-06-29T03:31:20.460Z,1091.00
2023-06-29T03:32:20.443Z,1091.00
2023-06-29T03:33:20.454Z,1062.00
2023-06-29T03:34:20.433Z,1084.00
2023-06-29T03:35:20.414Z,1068.00
2023-06-29T03:36:20.422Z,1067.00
2023-06-29T03:37:20.440Z,1067.00
2023-06-29T03:38:20.445Z,1045.00
2023-06-29T03:39:20.450Z,1041.00
2023-06-29T03:40:20.450Z,1045.00
2023-06-29T03:41:20.460Z,1027.00
2023-06-29T03:42:20.445Z,1047.00
2023-06-29T03:43:20.453Z,1066.00
2023-06-29T03:44:20.472Z,1068.00
2023-06-29T03:45:20.448Z,1075.00
2023-06-29T03:46:20.461Z,1087.00
2023-06-29T03:47:20.518Z,1095.00
2023-06-29T03:48:20.605Z,1090.00
2023-06-29T03:49:20.469Z,1109.00
2023-06-29T03:50:20.487Z,1103.00
2023-06-29T03:51:20.474Z,1087.00
2023-06-29T03:52:20.460Z,1117.00
2023-06-29T03:53:20.464Z,1123.00
2023-06-29T03:54:20.475Z,1134.00
2023-06-29T03:55:20.467Z,1135.00
2023-06-29T03:56:20.460Z,1147.00
2023-06-29T03:57:20.449Z,1152.00
2023-06-29T03:58:20.472Z,1158.00
2023-06-29T03:59:20.468Z,1158.00
2023-06-29T04:00:20.477Z,1163.00
2023-06-29T04:01:20.526Z,1169.00
2023-06-29T04:02:20.552Z,1166.00
2023-06-29T04:03:20.514Z,1164.00
2023-06-29T04:04:20.459Z,1166.00
2023-06-29T04:05:20.469Z,1168.00
2023-06-29T04:06:20.455Z,1150.00
2023-06-29T04:07:20.545Z,1153.00
2023-06-29T04:08:20.460Z,1161.00
2023-06-29T04:09:20.469Z,1151.00
2023-06-29T04:10:20.455Z,1153.00
2023-06-29T04:11:20.487Z,1143.00
2023-06-29T04:12:20.471Z,1134.00
2023-06-29T04:13:20.464Z,1141.00
2023-06-29T04:14:20.446Z,1135.00
2023-06-29T04:15:20.466Z,1120.00
2023-06-29T04:16:20.489Z,1119.00
2023-06-29T04:17:20.474Z,1112.00
2023-06-29T04:18:20.474Z,1113.00
2023-06-29T04:19:20.456Z,1127.00
2023-06-29T04:20:20.471Z,1128.00
2023-06-29T04:21:20.464Z,1126.00
2023-06-29T04:22:20.451Z,1127.00
2023-06-29T04:23:20.444Z,1116.00
2023-06-29T04:24:20.458Z,1119.00
2023-06-29T04:25:20.460Z,1108.00
2023-06-29T04:26:20.452Z,1125.00
2023-06-29T04:27:20.474Z,1124.00
2023-06-29T04:28:20.463Z,1116.00
2023-06-29T04:29:20.469Z,1129.00
2023-06-29T04:30:20.470Z,1133.00
2023-06-29T04:31:20.511Z,1128.00
2023-06-29T04:32:20.447Z,1130.00
2023-06-29T04:33:20.523Z,1139.00
2023-06-29T04:34:20.456Z,1149.00
2023-06-29T04:35:20.472Z,1146.00
2023-06-29T04:36:20.461Z,1131.00
2023-06-29T04:37:20.452Z,1153.00
2023-06-29T04:38:20.449Z,1124.00
2023-06-29T04:39:20.429Z,1140.00
2023-06-29T04:40:20.455Z,1141.00
2023-06-29T04:41:20.523Z,1128.00
2023-06-29T04:42:20.577Z,1114.00
2023-06-29T04:43:20.624Z,1082.00
2023-06-29T04:44:20.646Z,1072.00
2023-06-29T04:45:20.697Z,1016.00
2023-06-29T04:46:20.693Z,1024.00
2023-06-29T04:47:20.749Z,1005.00
2023-06-29T04:48:20.778Z,1021.00
2023-06-29T04:49:20.784Z,1002.00
2023-06-29T04:50:20.812Z,973.00
2023-06-29T04:51:20.844Z,1010.00
2023-06-29T04:52:20.870Z,1032.00
2023-06-29T04:53:20.990Z,1079.00
2023-06-29T04:54:21.002Z,1090.00
2023-06-29T04:55:21.060Z,1129.00
2023-06-29T04:56:21.128Z,1136.00
2023-06-29T04:57:21.161Z,1150.00
2023-06-29T04:58:21.145Z,1162.00
2023-06-29T04:59:21.154Z,1161.00
2023-06-29T05:00:21.217Z,1180.00
2023-06-29T05:01:21.245Z,1195.00
2023-06-29T05:02:21.219Z,1194.00
2023-06-29T05:03:21.349Z,1209.00
2023-06-29T05:04:21.291Z,1204.00
2023-06-29T05:05:21.316Z,1237.00
2023-06-29T05:06:21.340Z,1222.00
2023-06-29T05:07:21.431Z,1251.00
2023-06-29T05:08:21.440Z,1255.00
2023-06-29T05:09:21.482Z,1272.00
2023-06-29T05:10:21.517Z,1272.00
2023-06-29T05:11:21.581Z,1267.00
2023-06-29T05:12:21.604Z,1291.00
2023-06-29T05:13:21.657Z,1281.00
2023-06-29T05:14:21.717Z,1310.00
2023-06-29T05:15:21.744Z,1319.00
2023-06-29T05:16:21.816Z,1321.00
2023-06-29T05:17:21.878Z,1334.00
2023-06-29T05:18:21.880Z,1362.00
2023-06-29T05:19:21.909Z,1359.00
2023-06-29T05:20:21.961Z,1373.00
2023-06-29T05:21:21.991Z,1386.00
2023-06-29T05:22:22.084Z,1397.00
2023-06-29T05:23:22.109Z,1404.00
2023-06-29T05:24:22.141Z,1400.00
2023-06-29T05:25:22.172Z,1403.00
2023-06-29T05:26:22.236Z,1427.00
2023-06-29T05:27:22.273Z,1404.00
2023-06-29T05:28:22.828Z,1404.00
2023-06-29T05:29:22.380Z,1389.00
2023-06-29T05:30:22.541Z,1437.00
2023-06-29T05:31:22.579Z,1428.00
2023-06-29T05:32:22.498Z,1446.00
2023-06-29T05:33:23.231Z,1460.00
2023-06-29T05:34:22.539Z,1453.00
2023-06-29T05:35:22.566Z,1494.00
2023-06-29T05:36:22.575Z,1517.00
2023-06-29T05:37:22.573Z,1541.00
2023-06-29T05:38:22.807Z,1617.00
2023-06-29T05:39:22.578Z,1674.00
2023-06-29T05:40:22.595Z,1729.00
2023-06-29T05:41:22.600Z,1724.00
2023-06-29T05:42:22.644Z,1731.00
2023-06-29T05:43:22.637Z,1756.00
2023-06-29T05:44:22.669Z,1813.00
2023-06-29T05:45:22.646Z,1840.00
2023-06-29T05:46:22.911Z,1866.00
2023-06-29T05:47:22.771Z,1857.00
2023-06-29T05:48:22.758Z,1884.00
2023-06-29T05:49:22.706Z,1919.00
2023-06-29T05:50:22.708Z,1922.00
2023-06-29T05:51:22.702Z,1940.00
2023-06-29T05:52:22.715Z,1955.00
2023-06-29T05:53:22.734Z,1992.00
2023-06-29T05:54:22.758Z,2019.00
2023-06-29T05:55:22.778Z,2040.00
2023-06-29T05:56:22.763Z,2075.00
2023-06-29T05:57:22.734Z,2094.00
2023-06-29T05:58:22.727Z,2092.00
2023-06-29T05:59:22.705Z,2073.00
2023-06-29T06:00:22.717Z,2105.00
2023-06-29T06:01:22.760Z,2109.00
2023-06-29T06:02:22.705Z,2128.00
2023-06-29T06:03:22.737Z,2145.00
2023-06-29T06:04:22.710Z,2162.00
2023-06-29T06:05:22.709Z,2156.00
2023-06-29T06:06:22.697Z,2171.00
2023-06-29T06:07:22.737Z,2187.00
2023-06-29T06:08:22.682Z,2192.00
2023-06-29T06:09:22.734Z,2211.00
2023-06-29T06:10:22.730Z,2223.00
2023-06-29T06:11:22.799Z,2243.00
2023-06-29T06:12:22.844Z,2252.00
2023-06-29T06:13:22.865Z,2249.00
2023-06-29T06:14:22.965Z,2236.00
2023-06-29T06:15:22.995Z,2250.00
2023-06-29T06:16:23.071Z,2253.00
2023-06-29T06:17:23.087Z,2278.00
2023-06-29T06:18:23.141Z,2294.00
2023-06-29T06:19:23.217Z,2295.00
2023-06-29T06:20:23.240Z,2307.00
2023-06-29T06:21:23.303Z,2330.00
2023-06-29T06:22:23.468Z,2217.00
2023-06-29T06:23:23.438Z,2276.00
2023-06-29T06:24:23.498Z,2333.00
2023-06-29T06:25:23.559Z,2321.00
2023-06-29T06:26:23.600Z,2345.00
2023-06-29T06:27:23.696Z,2304.00
2023-06-29T06:28:23.686Z,2321.00
2023-06-29T06:29:23.696Z,2284.00
2023-06-29T06:30:23.716Z,2283.00
2023-06-29T06:31:33.582Z,2262.00
2023-06-29T06:32:24.780Z,2264.00
2023-06-29T06:33:23.817Z,2274.00
2023-06-29T06:34:23.741Z,2299.00
2023-06-29T06:35:23.727Z,2321.00
2023-06-29T06:36:23.708Z,2317.00
2023-06-29T06:37:23.729Z,2336.00
2023-06-29T06:38:25.821Z,2363.00
2023-06-29T06:39:24.703Z,2365.00
2023-06-29T06:40:23.684Z,2365.00
2023-06-29T06:41:23.750Z,2368.00
2023-06-29T06:42:23.684Z,2398.00
2023-06-29T06:43:24.301Z,2411.00
2023-06-29T06:44:23.651Z,2413.00
2023-06-29T06:45:23.658Z,2388.00
2023-06-29T06:46:23.748Z,2373.00
2023-06-29T06:47:23.731Z,2291.00
2023-06-29T06:48:23.787Z,2291.00
2023-06-29T06:49:23.819Z,2247.00
2023-06-29T06:50:23.869Z,2159.00
2023-06-29T06:51:23.875Z,2123.00
2023-06-29T06:52:23.961Z,2070.00
2023-06-29T06:53:24.297Z,2033.00
2023-06-29T06:54:23.990Z,2016.00
2023-06-29T06:55:24.031Z,1968.00
2023-06-29T06:56:24.087Z,1943.00
2023-06-29T06:57:24.082Z,1909.00
2023-06-29T06:58:24.081Z,1886.00
2023-06-29T06:59:24.050Z,1871.00
2023-06-29T07:00:24.061Z,1829.00
2023-06-29T07:01:24.147Z,1803.00
2023-06-29T07:02:24.172Z,1784.00
2023-06-29T07:03:24.319Z,1782.00
2023-06-29T07:04:24.092Z,1760.00
2023-06-29T07:05:24.084Z,1712.00
2023-06-29T07:06:24.121Z,1708.00
2023-06-29T07:07:24.301Z,1666.00
2023-06-29T07:08:24.070Z,1656.00
2023-06-29T07:09:24.077Z,1632.00
2023-06-29T07:10:24.077Z,1602.00
2023-06-29T07:11:24.078Z,1575.00
2023-06-29T07:12:24.095Z,1547.00
2023-06-29T07:13:24.078Z,1523.00
2023-06-29T07:14:24.095Z,1504.00
2023-06-29T07:15:24.120Z,1501.00
2023-06-29T07:16:24.137Z,1487.00
2023-06-29T07:17:24.153Z,1486.00
2023-06-29T07:18:24.161Z,1471.00
2023-06-29T07:21:26.168Z,1411.00
2023-06-29T07:24:24.118Z,1359.00
2023-06-29T07:25:24.103Z,1318.00
2023-06-29T07:26:24.098Z,1287.00
2023-06-29T07:27:24.123Z,1269.00
2023-06-29T07:28:24.121Z,1240.00
2023-06-29T07:29:24.063Z,1213.00
2023-06-29T07:30:24.136Z,1198.00
2023-06-29T07:31:24.148Z,1182.00
2023-06-29T07:32:24.116Z,1164.00
2023-06-29T07:33:24.061Z,1171.00
2023-06-29T07:34:24.058Z,1152.00
2023-06-29T07:35:24.024Z,1146.00
2023-06-29T07:36:24.034Z,1107.00
2023-06-29T07:37:24.002Z,1085.00
2023-06-29T07:38:24.011Z,1062.00
2023-06-29T07:39:24.017Z,1078.00
2023-06-29T07:40:24.107Z,1116.00
2023-06-29T07:41:24.000Z,1126.00
2023-06-29T07:42:38.261Z,1088.00
2023-06-29T07:43:24.975Z,1090.00
2023-06-29T07:44:23.988Z,1082.00
2023-06-29T07:45:24.005Z,1052.00
2023-06-29T07:46:23.968Z,1061.00
2023-06-29T07:47:24.061Z,1074.00
2023-06-29T07:48:24.054Z,1100.00
2023-06-29T07:49:23.937Z,1107.00
2023-06-29T07:50:23.969Z,1089.00
2023-06-29T07:51:24.095Z,1075.00
2023-06-29T07:52:23.939Z,1027.00
2023-06-29T07:53:23.914Z,996.00
2023-06-29T07:54:23.905Z,987.00
2023-06-29T07:55:23.931Z,950.00
2023-06-29T07:56:23.969Z,962.00
2023-06-29T07:59:23.895Z,933.00
2023-06-29T08:00:23.889Z,911.00
2023-06-29T08:01:23.883Z,870.00
2023-06-29T08:02:23.937Z,870.00
2023-06-29T08:03:23.873Z,887.00
2023-06-29T08:07:23.905Z,840.00
2023-06-29T08:08:23.862Z,818.00
2023-06-29T08:09:23.812Z,784.00
2023-06-29T08:10:23.810Z,784.00
2023-06-29T08:11:23.782Z,774.00
2023-06-29T08:12:23.784Z,804.00
2023-06-29T08:13:23.779Z,861.00
2023-06-29T08:14:23.774Z,843.00
2023-06-29T08:15:23.755Z,767.00
2023-06-29T08:16:23.773Z,748.00
2023-06-29T08:17:23.789Z,738.00
2023-06-29T08:18:23.743Z,729.00
2023-06-29T08:19:23.794Z,718.00
2023-06-29T08:20:23.770Z,669.00
2023-06-29T08:21:23.724Z,683.00
2023-06-29T08:22:23.728Z,659.00
2023-06-29T08:23:23.720Z,653.00
2023-06-29T08:24:23.725Z,652.00
2023-06-29T08:25:23.696Z,651.00
2023-06-29T08:26:23.718Z,664.00
2023-06-29T08:27:23.713Z,656.00
2023-06-29T08:28:23.706Z,640.00
2023-06-29T08:29:23.722Z,630.00
2023-06-29T08:30:23.730Z,618.00
2023-06-29T08:31:23.700Z,608.00
2023-06-29T08:32:23.776Z,593.00
2023-06-29T08:33:23.721Z,587.00
2023-06-29T08:34:23.652Z,596.00
2023-06-29T08:35:23.657Z,596.00
2023-06-29T08:36:23.635Z,587.00
2023-06-29T08:37:23.612Z,581.00
2023-06-29T08:38:23.617Z,571.00
2023-06-29T08:39:23.621Z,559.00
2023-06-29T08:40:23.669Z,552.00
2023-06-29T08:41:23.601Z,546.00
2023-06-29T08:42:23.577Z,539.00
2023-06-29T08:43:23.603Z,528.00
2023-06-29T08:44:23.594Z,523.00
2023-06-29T08:45:23.605Z,522.00
2023-06-29T08:46:23.610Z,516.00
2023-06-29T08:47:23.589Z,505.00
2023-06-29T08:48:23.549Z,501.00
2023-06-29T08:49:23.548Z,497.00
2023-06-29T08:50:23.546Z,504.00
2023-06-29T08:51:23.517Z,509.00
2023-06-29T08:52:23.524Z,502.00
2023-06-29T08:53:23.573Z,500.00
2023-06-29T08:54:23.512Z,505.00
2023-06-29T08:55:23.515Z,499.00
2023-06-29T08:56:23.483Z,509.00
2023-06-29T08:57:23.514Z,502.00
2023-06-29T08:58:23.826Z,502.00
2023-06-29T08:59:23.481Z,506.00
2023-06-29T09:00:23.469Z,515.00
2023-06-29T09:01:23.553Z,501.00
2023-06-29T09:02:23.512Z,500.00
2023-06-29T09:03:23.691Z,500.00
2023-06-29T09:04:23.441Z,501.00
2023-06-29T09:05:23.465Z,511.00
2023-06-29T09:06:23.424Z,501.00
2023-06-29T09:07:23.476Z,502.00
2023-06-29T09:08:23.505Z,500.00
2023-06-29T09:09:23.397Z,520.00
2023-06-29T09:10:23.450Z,522.00
2023-06-29T09:11:23.380Z,511.00
2023-06-29T09:12:23.370Z,499.00
2023-06-29T09:13:23.816Z,507.00
2023-06-29T09:14:23.371Z,506.00
2023-06-29T09:15:23.374Z,505.00
2023-06-29T09:16:23.378Z,504.00
2023-06-29T09:17:23.509Z,500.00
2023-06-29T09:18:23.361Z,504.00
2023-06-29T09:19:23.328Z,505.00
2023-06-29T09:20:23.339Z,508.00
2023-06-29T09:21:23.340Z,504.00
2023-06-29T09:22:23.338Z,516.00
2023-06-29T09:23:23.313Z,510.00
2023-06-29T09:24:23.317Z,507.00
2023-06-29T09:25:33.250Z,511.00
2023-06-29T09:26:24.306Z,511.00
2023-06-29T09:27:23.315Z,504.00
2023-06-29T09:28:23.321Z,505.00
2023-06-29T09:29:23.342Z,503.00
2023-06-29T09:30:23.258Z,513.00
2023-06-29T09:31:23.291Z,509.00
2023-06-29T09:32:23.246Z,514.00
2023-06-29T09:33:23.247Z,507.00
2023-06-29T09:34:23.235Z,508.00
2023-06-29T09:35:23.248Z,502.00
2023-06-29T09:36:23.216Z,503.00
2023-06-29T09:37:23.255Z,501.00
2023-06-29T09:38:23.227Z,511.00
2023-06-29T09:39:23.213Z,504.00
2023-06-29T09:40:23.197Z,511.00
2023-06-29T09:41:23.208Z,509.00
2023-06-29T09:42:23.300Z,501.00
2023-06-29T09:43:23.233Z,503.00
2023-06-29T09:44:23.221Z,513.00
2023-06-29T09:45:23.183Z,509.00
2023-06-29T09:46:23.199Z,519.00
2023-06-29T09:49:23.340Z,510.00
2023-06-29T09:50:23.324Z,511.00
2023-06-29T09:51:23.359Z,515.00
2023-06-29T09:52:23.175Z,519.00
2023-06-29T09:53:23.137Z,531.00
2023-06-29T09:54:23.117Z,539.00
2023-06-29T09:55:23.096Z,541.00
2023-06-29T09:56:23.109Z,546.00
2023-06-29T09:57:23.083Z,534.00
2023-06-29T09:58:23.075Z,537.00
2023-06-29T09:59:23.093Z,537.00
2023-06-29T10:00:23.059Z,512.00
2023-06-29T10:01:23.105Z,494.00
2023-06-29T10:02:23.158Z,514.00
2023-06-29T10:03:23.140Z,519.00
2023-06-29T10:04:23.088Z,561.00
2023-06-29T10:05:23.057Z,530.00
2023-06-29T10:06:23.035Z,568.00
2023-06-29T10:07:23.115Z,590.00
2023-06-29T10:08:23.036Z,615.00
2023-06-29T10:09:22.994Z,645.00
2023-06-29T10:10:22.983Z,661.00
2023-06-29T10:11:22.999Z,664.00
2023-06-29T10:12:23.004Z,655.00
2023-06-29T10:13:22.986Z,656.00
2023-06-29T10:14:22.959Z,680.00
2023-06-29T10:15:22.957Z,720.00
2023-06-29T10:16:22.965Z,724.00
2023-06-29T10:17:23.011Z,703.00
2023-06-29T10:18:22.944Z,707.00
2023-06-29T10:19:22.922Z,709.00
2023-06-29T10:20:22.937Z,707.00
2023-06-29T10:21:22.908Z,682.00
2023-06-29T10:22:22.901Z,670.00
2023-06-29T10:23:24.150Z,670.00
2023-06-29T10:24:22.909Z,663.00
2023-06-29T10:25:22.891Z,660.00
2023-06-29T10:26:22.903Z,643.00
2023-06-29T10:27:22.882Z,634.00
2023-06-29T10:28:23.342Z,639.00
2023-06-29T10:29:24.270Z,639.00
2023-06-29T10:30:22.870Z,639.00
2023-06-29T10:31:23.031Z,635.00
2023-06-29T10:32:22.830Z,636.00
2023-06-29T10:33:22.844Z,642.00
2023-06-29T10:34:22.842Z,644.00
2023-06-29T10:35:24.027Z,632.00
2023-06-29T10:36:22.906Z,632.00
2023-06-29T10:37:22.808Z,625.00
2023-06-29T10:38:22.830Z,625.00
2023-06-29T10:39:22.804Z,624.00
2023-06-29T10:40:22.793Z,622.00
2023-06-29T10:41:22.780Z,631.00
2023-06-29T10:42:22.816Z,635.00
2023-06-29T10:43:22.775Z,632.00
2023-06-29T10:44:22.781Z,621.00
2023-06-29T10:45:22.753Z,622.00
2023-06-29T10:46:22.777Z,618.00
2023-06-29T10:47:22.764Z,613.00
2023-06-29T10:48:42.873Z,603.00
2023-06-29T10:49:23.741Z,603.00
2023-06-29T10:50:22.723Z,606.00
2023-06-29T10:51:22.708Z,608.00
2023-06-29T10:52:22.696Z,609.00
2023-06-29T10:53:22.702Z,620.00
2023-06-29T10:54:22.759Z,630.00
2023-06-29T10:55:22.676Z,628.00
2023-06-29T10:56:22.683Z,630.00
2023-06-29T10:57:22.668Z,635.00
2023-06-29T10:58:22.662Z,637.00
2023-06-29T10:59:22.665Z,622.00
2023-06-29T11:00:22.642Z,639.00
2023-06-29T11:01:22.681Z,624.00
2023-06-29T11:02:22.732Z,644.00
2023-06-29T11:03:22.648Z,653.00
2023-06-29T11:04:22.722Z,639.00
2023-06-29T11:05:22.642Z,640.00
2023-06-29T11:06:33.534Z,642.00
2023-06-29T11:07:23.654Z,643.00
2023-06-29T11:08:22.578Z,643.00
2023-06-29T11:09:22.590Z,644.00
2023-06-29T11:10:22.577Z,661.00
2023-06-29T11:11:22.571Z,671.00
2023-06-29T11:12:22.567Z,654.00
2023-06-29T11:13:22.565Z,644.00
2023-06-29T11:14:22.566Z,631.00
2023-06-29T11:15:22.559Z,626.00
2023-06-29T11:16:22.604Z,607.00
2023-06-29T11:17:22.564Z,595.00
2023-06-29T11:18:22.519Z,563.00
2023-06-29T11:19:22.525Z,537.00
2023-06-29T11:20:22.493Z,510.00
2023-06-29T11:21:22.527Z,508.00
2023-06-29T11:22:22.491Z,542.00
2023-06-29T11:23:22.526Z,537.00
2023-06-29T11:24:22.469Z,503.00
2023-06-29T11:25:22.471Z,497.00
2023-06-29T11:26:22.465Z,498.00
2023-06-29T11:27:22.469Z,502.00
2023-06-29T11:28:22.515Z,534.00
2023-06-29T11:29:22.611Z,542.00
2023-06-29T11:30:22.464Z,572.00
2023-06-29T11:31:22.473Z,581.00
2023-06-29T11:32:22.485Z,594.00
2023-06-29T11:34:23.400Z,565.00
2023-06-29T11:35:22.437Z,466.00
2023-06-29T11:36:22.511Z,473.00
2023-06-29T11:37:23.984Z,454.00
2023-06-29T11:38:22.446Z,509.00
2023-06-29T11:39:22.364Z,560.00
2023-06-29T11:40:22.383Z,588.00
2023-06-29T11:41:22.370Z,622.00
2023-06-29T11:42:22.414Z,648.00
2023-06-29T11:44:22.347Z,593.00
2023-06-29T11:45:22.328Z,612.00
2023-06-29T11:46:22.366Z,657.00
2023-06-29T11:48:22.356Z,597.00
2023-06-29T11:49:23.063Z,551.00
2023-06-29T11:50:22.329Z,498.00
2023-06-29T11:51:22.284Z,477.00
2023-06-29T11:52:22.312Z,502.00
2023-06-29T11:53:22.305Z,535.00
2023-06-29T11:54:22.290Z,583.00
2023-06-29T11:55:24.044Z,604.00
2023-06-29T11:56:22.250Z,619.00
2023-06-29T11:57:22.269Z,641.00
2023-06-29T11:58:22.253Z,622.00
2023-06-29T11:59:22.256Z,610.00
2023-06-29T12:00:22.278Z,599.00
2023-06-29T12:01:22.827Z,600.00
2023-06-29T12:02:22.286Z,646.00
2023-06-29T12:03:22.299Z,609.00
2023-06-29T12:04:22.338Z,484.00
2023-06-29T12:05:22.212Z,498.00
2023-06-29T12:06:22.192Z,500.00
2023-06-29T12:07:22.293Z,505.00
2023-06-29T12:08:22.541Z,506.00
2023-06-29T12:09:22.348Z,525.00
2023-06-29T12:10:22.178Z,560.00
2023-06-29T12:11:23.044Z,563.00
2023-06-29T12:12:22.210Z,604.00
2023-06-29T12:13:22.170Z,636.00
2023-06-29T12:14:22.345Z,644.00
2023-06-29T12:15:22.164Z,654.00
2023-06-29T12:18:22.310Z,605.00
2023-06-29T12:19:22.890Z,582.00
2023-06-29T12:20:22.227Z,520.00
2023-06-29T12:21:22.488Z,528.00
2023-06-29T12:22:22.086Z,508.00
2023-06-29T12:23:22.079Z,477.00
2023-06-29T12:24:22.106Z,499.00
2023-06-29T12:25:22.058Z,500.00
2023-06-29T12:26:22.070Z,500.00
2023-06-29T12:27:22.074Z,501.00
2023-06-29T12:28:22.041Z,510.00
2023-06-29T12:29:22.059Z,502.00